sensor_id;sensor_type;location;lat;lon;timestamp;pressure;altitude;pressure_sealevel;temperature;humidity
18500;BME280;9379;52.134;11.576;2023-05-07T00:01:37;101462.03;;;13.52;88.81
18500;BME280;9379;52.134;11.576;2023-05-07T00:04:04;101467.75;;;13.68;88.14
18500;BME280;9379;52.134;11.576;2023-05-07T00:06:33;101479.91;;;12.89;92.16
18500;BME280;9379;52.134;11.576;2023-05-07T00:08:59;101469.44;;;12.97;91.61
18500;BME280;9379;52.134;11.576;2023-05-07T00:11:26;101458.41;;;12.70;93.07
18500;BME280;9379;52.134;11.576;2023-05-07T00:13:54;101454.88;;;12.69;93.08
18500;BME280;9379;52.134;11.576;2023-05-07T00:16:22;101468.47;;;12.66;93.62
18500;BME280;9379;52.134;11.576;2023-05-07T00:18:49;101469.47;;;13.07;92.04
18500;BME280;9379;52.134;11.576;2023-05-07T00:21:16;101454.00;;;12.80;91.76
18500;BME280;9379;52.134;11.576;2023-05-07T00:23:42;101456.00;;;12.67;92.42
18500;BME280;9379;52.134;11.576;2023-05-07T00:26:09;101455.41;;;12.84;91.59
18500;BME280;9379;52.134;11.576;2023-05-07T00:28:36;101463.91;;;13.10;90.56
18500;BME280;9379;52.134;11.576;2023-05-07T00:31:03;101470.59;;;13.04;90.58
18500;BME280;9379;52.134;11.576;2023-05-07T00:33:31;101451.97;;;12.93;90.62
18500;BME280;9379;52.134;11.576;2023-05-07T00:35:58;101456.34;;;13.36;89.07
18500;BME280;9379;52.134;11.576;2023-05-07T00:38:26;101464.56;;;13.44;87.71
18500;BME280;9379;52.134;11.576;2023-05-07T00:40:53;101458.09;;;13.05;88.55
18500;BME280;9379;52.134;11.576;2023-05-07T00:43:19;101453.34;;;13.29;87.23
18500;BME280;9379;52.134;11.576;2023-05-07T00:45:46;101462.19;;;12.88;88.10
18500;BME280;9379;52.134;11.576;2023-05-07T00:48:13;101451.81;;;12.53;89.26
18500;BME280;9379;52.134;11.576;2023-05-07T00:50:42;101466.28;;;12.92;88.47
18500;BME280;9379;52.134;11.576;2023-05-07T00:53:09;101459.72;;;12.96;87.40
18500;BME280;9379;52.134;11.576;2023-05-07T00:55:36;101471.50;;;12.94;87.10
18500;BME280;9379;52.134;11.576;2023-05-07T00:58:03;101456.56;;;12.70;86.54
18500;BME280;9379;52.134;11.576;2023-05-07T01:00:31;101466.09;;;13.05;85.82
18500;BME280;9379;52.134;11.576;2023-05-07T01:02:57;101448.97;;;13.07;85.23
18500;BME280;9379;52.134;11.576;2023-05-07T01:05:26;101441.78;;;13.19;84.21
18500;BME280;9379;52.134;11.576;2023-05-07T01:07:55;101464.03;;;13.08;84.49
18500;BME280;9379;52.134;11.576;2023-05-07T01:10:23;101453.63;;;13.26;83.76
18500;BME280;9379;52.134;11.576;2023-05-07T01:12:51;101464.84;;;13.20;84.04
18500;BME280;9379;52.134;11.576;2023-05-07T01:15:18;101462.78;;;13.12;84.26
18500;BME280;9379;52.134;11.576;2023-05-07T01:17:45;101459.41;;;13.10;83.98
18500;BME280;9379;52.134;11.576;2023-05-07T01:20:12;101473.13;;;13.06;83.51
18500;BME280;9379;52.134;11.576;2023-05-07T01:22:40;101460.38;;;13.09;83.20
18500;BME280;9379;52.134;11.576;2023-05-07T01:25:07;101471.34;;;13.27;82.68
18500;BME280;9379;52.134;11.576;2023-05-07T01:27:35;101470.78;;;13.12;83.22
18500;BME280;9379;52.134;11.576;2023-05-07T01:30:02;101453.44;;;12.97;84.30
18500;BME280;9379;52.134;11.576;2023-05-07T01:32:33;101465.91;;;12.76;85.33
18500;BME280;9379;52.134;11.576;2023-05-07T01:35:02;101462.94;;;13.11;84.10
18500;BME280;9379;52.134;11.576;2023-05-07T01:37:31;101464.59;;;12.91;84.37
18500;BME280;9379;52.134;11.576;2023-05-07T01:40:01;101463.44;;;13.05;84.27
18500;BME280;9379;52.134;11.576;2023-05-07T01:42:30;101462.47;;;13.48;82.75
18500;BME280;9379;52.134;11.576;2023-05-07T01:44:57;101458.66;;;13.50;82.38
18500;BME280;9379;52.134;11.576;2023-05-07T01:47:25;101451.22;;;13.54;82.23
18500;BME280;9379;52.134;11.576;2023-05-07T01:49:52;101450.38;;;13.84;81.14
18500;BME280;9379;52.134;11.576;2023-05-07T01:52:19;101455.06;;;13.91;81.10
18500;BME280;9379;52.134;11.576;2023-05-07T01:54:46;101468.84;;;13.66;81.49
18500;BME280;9379;52.134;11.576;2023-05-07T01:57:14;101472.59;;;13.84;81.38
18500;BME280;9379;52.134;11.576;2023-05-07T01:59:41;101470.28;;;14.10;80.47
18500;BME280;9379;52.134;11.576;2023-05-07T02:02:07;101474.53;;;14.13;80.26
18500;BME280;9379;52.134;11.576;2023-05-07T02:04:34;101479.31;;;14.19;79.71
18500;BME280;9379;52.134;11.576;2023-05-07T02:07:03;101478.81;;;13.64;81.29
18500;BME280;9379;52.134;11.576;2023-05-07T02:09:30;101480.25;;;13.37;83.01
18500;BME280;9379;52.134;11.576;2023-05-07T02:11:57;101487.78;;;13.53;82.64
18500;BME280;9379;52.134;11.576;2023-05-07T02:14:25;101475.19;;;13.34;83.22
18500;BME280;9379;52.134;11.576;2023-05-07T02:16:51;101487.41;;;13.37;82.78
18500;BME280;9379;52.134;11.576;2023-05-07T02:19:18;101485.38;;;13.29;83.63
18500;BME280;9379;52.134;11.576;2023-05-07T02:21:46;101486.69;;;13.14;83.85
18500;BME280;9379;52.134;11.576;2023-05-07T02:24:13;101489.47;;;13.12;84.50
18500;BME280;9379;52.134;11.576;2023-05-07T02:26:40;101489.09;;;13.59;83.55
18500;BME280;9379;52.134;11.576;2023-05-07T02:29:07;101485.88;;;13.65;82.96
18500;BME280;9379;52.134;11.576;2023-05-07T02:31:35;101493.16;;;13.32;84.11
18500;BME280;9379;52.134;11.576;2023-05-07T02:34:02;101486.63;;;13.46;83.72
18500;BME280;9379;52.134;11.576;2023-05-07T02:36:29;101490.72;;;13.50;83.41
18500;BME280;9379;52.134;11.576;2023-05-07T02:38:56;101489.06;;;12.75;86.49
18500;BME280;9379;52.134;11.576;2023-05-07T02:41:22;101479.06;;;12.89;85.37
18500;BME280;9379;52.134;11.576;2023-05-07T02:43:49;101491.66;;;13.07;85.60
18500;BME280;9379;52.134;11.576;2023-05-07T02:46:16;101497.97;;;13.38;84.90
18500;BME280;9379;52.134;11.576;2023-05-07T02:48:44;101496.97;;;13.19;84.22
18500;BME280;9379;52.134;11.576;2023-05-07T02:51:11;101492.53;;;13.08;85.54
18500;BME280;9379;52.134;11.576;2023-05-07T02:53:38;101491.75;;;13.17;84.86
18500;BME280;9379;52.134;11.576;2023-05-07T02:56:05;101492.66;;;13.06;84.86
18500;BME280;9379;52.134;11.576;2023-05-07T02:58:32;101498.91;;;13.17;85.09
18500;BME280;9379;52.134;11.576;2023-05-07T03:00:59;101493.66;;;13.26;84.20
18500;BME280;9379;52.134;11.576;2023-05-07T03:03:25;101493.56;;;13.17;84.48
18500;BME280;9379;52.134;11.576;2023-05-07T03:05:53;101493.56;;;13.17;84.39
18500;BME280;9379;52.134;11.576;2023-05-07T03:08:21;101490.75;;;12.76;85.39
18500;BME280;9379;52.134;11.576;2023-05-07T03:10:47;101491.00;;;12.94;85.22
18500;BME280;9379;52.134;11.576;2023-05-07T03:13:14;101494.69;;;13.14;84.47
18500;BME280;9379;52.134;11.576;2023-05-07T03:15:41;101491.69;;;12.87;85.53
18500;BME280;9379;52.134;11.576;2023-05-07T03:18:08;101501.50;;;12.86;85.30
18500;BME280;9379;52.134;11.576;2023-05-07T03:20:34;101499.28;;;12.91;85.09
18500;BME280;9379;52.134;11.576;2023-05-07T03:23:03;101487.78;;;13.11;84.40
18500;BME280;9379;52.134;11.576;2023-05-07T03:25:30;101500.06;;;13.35;83.32
18500;BME280;9379;52.134;11.576;2023-05-07T03:27:57;101481.75;;;13.30;83.37
18500;BME280;9379;52.134;11.576;2023-05-07T03:30:24;101494.44;;;13.59;82.42
18500;BME280;9379;52.134;11.576;2023-05-07T03:32:50;101500.25;;;13.43;82.64
18500;BME280;9379;52.134;11.576;2023-05-07T03:35:17;101497.88;;;12.87;84.80
18500;BME280;9379;52.134;11.576;2023-05-07T03:37:44;101504.22;;;12.96;84.83
18500;BME280;9379;52.134;11.576;2023-05-07T03:40:12;101497.72;;;12.89;85.17
18500;BME280;9379;52.134;11.576;2023-05-07T03:42:39;101494.50;;;13.27;83.50
18500;BME280;9379;52.134;11.576;2023-05-07T03:45:07;101503.00;;;13.32;83.84
18500;BME280;9379;52.134;11.576;2023-05-07T03:47:36;101502.47;;;12.85;85.29
18500;BME280;9379;52.134;11.576;2023-05-07T03:50:03;101493.19;;;13.00;84.93
18500;BME280;9379;52.134;11.576;2023-05-07T03:52:33;101503.78;;;12.91;85.92
18500;BME280;9379;52.134;11.576;2023-05-07T03:55:00;101504.88;;;13.20;84.46
18500;BME280;9379;52.134;11.576;2023-05-07T03:57:28;101505.66;;;13.32;84.00
18500;BME280;9379;52.134;11.576;2023-05-07T03:59:55;101503.38;;;13.27;83.85
18500;BME280;9379;52.134;11.576;2023-05-07T04:02:22;101504.31;;;13.05;84.96
18500;BME280;9379;52.134;11.576;2023-05-07T04:04:49;101501.91;;;12.70;85.39
18500;BME280;9379;52.134;11.576;2023-05-07T04:07:16;101513.91;;;12.76;85.54
18500;BME280;9379;52.134;11.576;2023-05-07T04:09:42;101509.16;;;12.79;85.12
18500;BME280;9379;52.134;11.576;2023-05-07T04:12:09;101518.06;;;12.69;85.67
18500;BME280;9379;52.134;11.576;2023-05-07T04:14:37;101522.50;;;12.79;85.79
18500;BME280;9379;52.134;11.576;2023-05-07T04:17:04;101523.41;;;12.57;86.17
18500;BME280;9379;52.134;11.576;2023-05-07T04:19:33;101516.63;;;12.97;84.70
18500;BME280;9379;52.134;11.576;2023-05-07T04:21:59;101523.19;;;13.13;84.05
18500;BME280;9379;52.134;11.576;2023-05-07T04:24:26;101524.63;;;12.97;84.61
18500;BME280;9379;52.134;11.576;2023-05-07T04:26:54;101522.94;;;12.84;85.40
18500;BME280;9379;52.134;11.576;2023-05-07T04:29:23;101526.31;;;12.66;85.92
18500;BME280;9379;52.134;11.576;2023-05-07T04:31:53;101529.97;;;12.65;86.10
18500;BME280;9379;52.134;11.576;2023-05-07T04:34:21;101524.22;;;13.01;84.89
18500;BME280;9379;52.134;11.576;2023-05-07T04:36:47;101530.97;;;13.37;83.86
18500;BME280;9379;52.134;11.576;2023-05-07T04:39:15;101536.19;;;13.39;83.34
18500;BME280;9379;52.134;11.576;2023-05-07T04:41:41;101535.94;;;13.21;83.74
18500;BME280;9379;52.134;11.576;2023-05-07T04:44:08;101537.03;;;13.39;83.38
18500;BME280;9379;52.134;11.576;2023-05-07T04:46:36;101529.28;;;12.51;86.10
18500;BME280;9379;52.134;11.576;2023-05-07T04:49:04;101541.78;;;12.72;85.91
18500;BME280;9379;52.134;11.576;2023-05-07T04:51:31;101541.75;;;12.51;86.63
18500;BME280;9379;52.134;11.576;2023-05-07T04:53:58;101540.88;;;12.94;85.66
18500;BME280;9379;52.134;11.576;2023-05-07T04:56:27;101536.47;;;12.17;88.18
18500;BME280;9379;52.134;11.576;2023-05-07T04:58:54;101544.44;;;12.40;87.23
18500;BME280;9379;52.134;11.576;2023-05-07T05:01:21;101535.00;;;12.79;86.23
18500;BME280;9379;52.134;11.576;2023-05-07T05:03:47;101532.59;;;12.76;86.14
18500;BME280;9379;52.134;11.576;2023-05-07T05:06:16;101527.03;;;12.68;86.20
18500;BME280;9379;52.134;11.576;2023-05-07T05:08:42;101533.56;;;12.96;85.47
18500;BME280;9379;52.134;11.576;2023-05-07T05:11:09;101534.41;;;12.96;85.32
18500;BME280;9379;52.134;11.576;2023-05-07T05:13:36;101541.22;;;13.00;84.71
18500;BME280;9379;52.134;11.576;2023-05-07T05:16:03;101545.03;;;12.87;85.97
18500;BME280;9379;52.134;11.576;2023-05-07T05:18:30;101555.09;;;12.51;85.26
18500;BME280;9379;52.134;11.576;2023-05-07T05:20:56;101547.25;;;12.70;84.75
18500;BME280;9379;52.134;11.576;2023-05-07T05:23:24;101548.63;;;12.65;84.50
18500;BME280;9379;52.134;11.576;2023-05-07T05:25:55;101562.19;;;13.05;83.41
18500;BME280;9379;52.134;11.576;2023-05-07T05:28:22;101569.53;;;12.80;84.70
18500;BME280;9379;52.134;11.576;2023-05-07T05:30:49;101577.22;;;13.06;83.43
18500;BME280;9379;52.134;11.576;2023-05-07T05:33:16;101579.88;;;12.74;84.01
18500;BME280;9379;52.134;11.576;2023-05-07T05:35:42;101587.34;;;12.91;83.47
18500;BME280;9379;52.134;11.576;2023-05-07T05:38:09;101583.88;;;13.11;83.16
18500;BME280;9379;52.134;11.576;2023-05-07T05:40:37;101585.22;;;13.06;82.72
18500;BME280;9379;52.134;11.576;2023-05-07T05:43:04;101570.69;;;13.31;81.91
18500;BME280;9379;52.134;11.576;2023-05-07T05:45:30;101587.13;;;13.15;82.95
18500;BME280;9379;52.134;11.576;2023-05-07T05:47:57;101586.56;;;12.68;83.63
18500;BME280;9379;52.134;11.576;2023-05-07T05:50:24;101587.13;;;12.83;83.74
18500;BME280;9379;52.134;11.576;2023-05-07T05:52:51;101585.41;;;12.82;83.63
18500;BME280;9379;52.134;11.576;2023-05-07T05:55:18;101584.59;;;12.70;83.86
18500;BME280;9379;52.134;11.576;2023-05-07T05:57:46;101592.63;;;13.02;83.51
18500;BME280;9379;52.134;11.576;2023-05-07T06:00:13;101586.81;;;13.08;83.57
18500;BME280;9379;52.134;11.576;2023-05-07T06:02:41;101589.19;;;13.23;83.16
18500;BME280;9379;52.134;11.576;2023-05-07T06:05:08;101585.81;;;13.21;82.89
18500;BME280;9379;52.134;11.576;2023-05-07T06:07:35;101587.97;;;13.15;83.29
18500;BME280;9379;52.134;11.576;2023-05-07T06:10:02;101582.63;;;12.83;84.32
18500;BME280;9379;52.134;11.576;2023-05-07T06:12:28;101590.44;;;12.64;85.32
18500;BME280;9379;52.134;11.576;2023-05-07T06:14:57;101579.06;;;12.94;84.12
18500;BME280;9379;52.134;11.576;2023-05-07T06:17:23;101589.00;;;13.03;84.23
18500;BME280;9379;52.134;11.576;2023-05-07T06:19:50;101592.16;;;13.08;83.30
18500;BME280;9379;52.134;11.576;2023-05-07T06:22:17;101588.28;;;13.01;83.82
18500;BME280;9379;52.134;11.576;2023-05-07T06:24:44;101589.38;;;13.31;83.17
18500;BME280;9379;52.134;11.576;2023-05-07T06:27:11;101588.59;;;12.76;84.99
18500;BME280;9379;52.134;11.576;2023-05-07T06:29:38;101588.25;;;12.69;83.95
18500;BME280;9379;52.134;11.576;2023-05-07T06:32:09;101591.16;;;12.77;83.71
18500;BME280;9379;52.134;11.576;2023-05-07T06:34:36;101578.34;;;12.92;83.97
18500;BME280;9379;52.134;11.576;2023-05-07T06:37:03;101590.00;;;12.91;83.51
18500;BME280;9379;52.134;11.576;2023-05-07T06:39:30;101587.06;;;12.94;84.22
18500;BME280;9379;52.134;11.576;2023-05-07T06:41:56;101593.09;;;13.07;83.44
18500;BME280;9379;52.134;11.576;2023-05-07T06:44:23;101598.31;;;13.20;82.49
18500;BME280;9379;52.134;11.576;2023-05-07T06:46:50;101597.28;;;13.32;81.29
18500;BME280;9379;52.134;11.576;2023-05-07T06:49:18;101603.31;;;13.02;82.51
18500;BME280;9379;52.134;11.576;2023-05-07T06:51:45;101605.34;;;13.10;82.29
18500;BME280;9379;52.134;11.576;2023-05-07T06:54:12;101608.81;;;13.75;81.00
18500;BME280;9379;52.134;11.576;2023-05-07T06:56:38;101605.00;;;13.67;81.02
18500;BME280;9379;52.134;11.576;2023-05-07T06:59:06;101595.25;;;13.13;82.45
18500;BME280;9379;52.134;11.576;2023-05-07T07:01:32;101603.00;;;13.28;81.99
18500;BME280;9379;52.134;11.576;2023-05-07T07:03:59;101603.59;;;13.31;81.84
18500;BME280;9379;52.134;11.576;2023-05-07T07:06:28;101599.81;;;13.34;81.93
18500;BME280;9379;52.134;11.576;2023-05-07T07:08:57;101597.94;;;13.13;82.72
18500;BME280;9379;52.134;11.576;2023-05-07T07:11:23;101610.31;;;13.14;82.58
18500;BME280;9379;52.134;11.576;2023-05-07T07:13:50;101611.13;;;13.26;81.96
18500;BME280;9379;52.134;11.576;2023-05-07T07:16:19;101603.47;;;13.33;81.49
18500;BME280;9379;52.134;11.576;2023-05-07T07:18:46;101609.22;;;13.49;81.39
18500;BME280;9379;52.134;11.576;2023-05-07T07:21:12;101604.50;;;13.09;82.08
18500;BME280;9379;52.134;11.576;2023-05-07T07:23:40;101609.88;;;12.98;83.00
18500;BME280;9379;52.134;11.576;2023-05-07T07:26:07;101610.06;;;12.74;83.46
18500;BME280;9379;52.134;11.576;2023-05-07T07:28:34;101618.94;;;12.75;83.75
18500;BME280;9379;52.134;11.576;2023-05-07T07:31:01;101608.00;;;12.78;83.81
18500;BME280;9379;52.134;11.576;2023-05-07T07:33:28;101614.47;;;12.96;83.46
18500;BME280;9379;52.134;11.576;2023-05-07T07:35:55;101618.06;;;13.18;82.47
18500;BME280;9379;52.134;11.576;2023-05-07T07:38:22;101609.59;;;13.12;82.50
18500;BME280;9379;52.134;11.576;2023-05-07T07:40:50;101618.78;;;13.20;81.79
18500;BME280;9379;52.134;11.576;2023-05-07T07:43:17;101599.84;;;12.91;82.82
18500;BME280;9379;52.134;11.576;2023-05-07T07:45:43;101620.63;;;13.19;82.60
18500;BME280;9379;52.134;11.576;2023-05-07T07:48:13;101604.63;;;13.40;81.89
18500;BME280;9379;52.134;11.576;2023-05-07T07:50:40;101622.56;;;13.49;81.34
18500;BME280;9379;52.134;11.576;2023-05-07T07:53:07;101621.59;;;13.50;82.76
18500;BME280;9379;52.134;11.576;2023-05-07T07:55:38;101625.19;;;13.60;81.20
18500;BME280;9379;52.134;11.576;2023-05-07T07:58:06;101630.19;;;13.54;81.17
18500;BME280;9379;52.134;11.576;2023-05-07T08:00:33;101634.75;;;13.63;81.27
18500;BME280;9379;52.134;11.576;2023-05-07T08:02:59;101636.31;;;13.45;81.44
18500;BME280;9379;52.134;11.576;2023-05-07T08:05:28;101645.16;;;13.66;80.80
18500;BME280;9379;52.134;11.576;2023-05-07T08:07:55;101649.63;;;13.24;82.59
18500;BME280;9379;52.134;11.576;2023-05-07T08:10:22;101649.94;;;13.30;82.23
18500;BME280;9379;52.134;11.576;2023-05-07T08:12:48;101650.50;;;13.45;81.75
18500;BME280;9379;52.134;11.576;2023-05-07T08:15:17;101651.69;;;13.52;82.61
18500;BME280;9379;52.134;11.576;2023-05-07T08:17:44;101642.31;;;13.58;80.89
18500;BME280;9379;52.134;11.576;2023-05-07T08:20:11;101648.25;;;13.61;80.92
18500;BME280;9379;52.134;11.576;2023-05-07T08:22:37;101644.91;;;13.48;82.19
18500;BME280;9379;52.134;11.576;2023-05-07T08:25:05;101650.69;;;13.53;81.60
18500;BME280;9379;52.134;11.576;2023-05-07T08:27:32;101648.09;;;13.63;80.81
18500;BME280;9379;52.134;11.576;2023-05-07T08:29:59;101640.00;;;13.53;81.40
18500;BME280;9379;52.134;11.576;2023-05-07T08:32:27;101639.22;;;13.41;82.09
18500;BME280;9379;52.134;11.576;2023-05-07T08:34:54;101648.44;;;13.69;81.64
18500;BME280;9379;52.134;11.576;2023-05-07T08:37:21;101648.50;;;13.58;82.00
18500;BME280;9379;52.134;11.576;2023-05-07T08:39:47;101646.75;;;13.68;81.50
18500;BME280;9379;52.134;11.576;2023-05-07T08:42:16;101650.81;;;13.52;82.61
18500;BME280;9379;52.134;11.576;2023-05-07T08:44:45;101661.16;;;13.13;84.18
18500;BME280;9379;52.134;11.576;2023-05-07T08:47:12;101656.56;;;13.47;82.62
18500;BME280;9379;52.134;11.576;2023-05-07T08:49:40;101644.78;;;13.70;82.30
18500;BME280;9379;52.134;11.576;2023-05-07T08:52:07;101658.34;;;13.79;81.43
18500;BME280;9379;52.134;11.576;2023-05-07T08:54:36;101661.41;;;13.74;81.43
18500;BME280;9379;52.134;11.576;2023-05-07T08:57:03;101668.34;;;13.45;83.20
18500;BME280;9379;52.134;11.576;2023-05-07T08:59:30;101668.91;;;13.80;81.82
18500;BME280;9379;52.134;11.576;2023-05-07T09:01:57;101662.56;;;13.60;83.03
18500;BME280;9379;52.134;11.576;2023-05-07T09:04:24;101668.78;;;13.82;81.57
18500;BME280;9379;52.134;11.576;2023-05-07T09:06:52;101668.31;;;13.97;81.85
18500;BME280;9379;52.134;11.576;2023-05-07T09:09:19;101663.47;;;13.50;82.33
18500;BME280;9379;52.134;11.576;2023-05-07T09:11:45;101667.84;;;13.51;82.35
18500;BME280;9379;52.134;11.576;2023-05-07T09:14:12;101676.88;;;13.38;83.08
18500;BME280;9379;52.134;11.576;2023-05-07T09:16:39;101670.31;;;13.63;81.80
18500;BME280;9379;52.134;11.576;2023-05-07T09:19:06;101677.84;;;13.69;81.59
18500;BME280;9379;52.134;11.576;2023-05-07T09:21:32;101681.00;;;13.63;82.12
18500;BME280;9379;52.134;11.576;2023-05-07T09:24:01;101674.06;;;13.72;82.11
18500;BME280;9379;52.134;11.576;2023-05-07T09:26:27;101677.88;;;14.00;82.67
18500;BME280;9379;52.134;11.576;2023-05-07T09:28:54;101668.38;;;13.86;81.56
18500;BME280;9379;52.134;11.576;2023-05-07T09:31:21;101661.69;;;13.92;81.32
18500;BME280;9379;52.134;11.576;2023-05-07T09:33:50;101666.34;;;13.58;83.04
18500;BME280;9379;52.134;11.576;2023-05-07T09:36:19;101675.94;;;13.81;82.80
18500;BME280;9379;52.134;11.576;2023-05-07T09:38:46;101674.44;;;13.88;82.25
18500;BME280;9379;52.134;11.576;2023-05-07T09:41:14;101675.38;;;13.78;82.65
18500;BME280;9379;52.134;11.576;2023-05-07T09:43:41;101682.47;;;13.67;82.40
18500;BME280;9379;52.134;11.576;2023-05-07T09:46:12;101673.06;;;13.73;81.34
18500;BME280;9379;52.134;11.576;2023-05-07T09:48:41;101681.88;;;13.85;81.65
18500;BME280;9379;52.134;11.576;2023-05-07T09:51:28;101674.50;;;13.98;81.85
18500;BME280;9379;52.134;11.576;2023-05-07T09:53:57;101664.16;;;14.05;80.68
18500;BME280;9379;52.134;11.576;2023-05-07T09:56:27;101666.41;;;14.09;80.30
18500;BME280;9379;52.134;11.576;2023-05-07T09:58:57;101659.59;;;13.95;80.55
18500;BME280;9379;52.134;11.576;2023-05-07T10:01:25;101657.94;;;14.55;79.34
18500;BME280;9379;52.134;11.576;2023-05-07T10:03:53;101668.91;;;14.31;79.50
18500;BME280;9379;52.134;11.576;2023-05-07T10:06:22;101659.25;;;14.40;78.28
18500;BME280;9379;52.134;11.576;2023-05-07T10:08:49;101662.63;;;14.12;79.58
18500;BME280;9379;52.134;11.576;2023-05-07T10:11:17;101663.22;;;14.15;79.49
18500;BME280;9379;52.134;11.576;2023-05-07T10:13:46;101676.97;;;14.11;79.03
18500;BME280;9379;52.134;11.576;2023-05-07T10:16:13;101670.84;;;14.20;79.25
18500;BME280;9379;52.134;11.576;2023-05-07T10:18:41;101673.00;;;14.26;78.92
18500;BME280;9379;52.134;11.576;2023-05-07T10:21:08;101667.28;;;14.40;79.14
18500;BME280;9379;52.134;11.576;2023-05-07T10:23:38;101672.84;;;14.48;80.64
18500;BME280;9379;52.134;11.576;2023-05-07T10:26:08;101682.28;;;14.52;78.37
18500;BME280;9379;52.134;11.576;2023-05-07T10:28:38;101674.84;;;14.35;78.71
18500;BME280;9379;52.134;11.576;2023-05-07T10:31:18;101681.97;;;14.46;78.49
18500;BME280;9379;52.134;11.576;2023-05-07T10:33:48;101674.47;;;14.40;80.31
18500;BME280;9379;52.134;11.576;2023-05-07T10:36:18;101677.78;;;14.53;78.79
18500;BME280;9379;52.134;11.576;2023-05-07T10:38:46;101675.94;;;14.84;78.01
18500;BME280;9379;52.134;11.576;2023-05-07T10:41:13;101686.94;;;14.50;77.62
18500;BME280;9379;52.134;11.576;2023-05-07T10:43:43;101682.75;;;14.37;77.99
18500;BME280;9379;52.134;11.576;2023-05-07T10:46:14;101676.81;;;14.33;79.00
18500;BME280;9379;52.134;11.576;2023-05-07T10:49:08;101683.88;;;14.65;78.50
18500;BME280;9379;52.134;11.576;2023-05-07T10:51:37;101690.22;;;14.64;78.20
18500;BME280;9379;52.134;11.576;2023-05-07T10:54:22;101676.56;;;15.16;77.00
18500;BME280;9379;52.134;11.576;2023-05-07T10:56:50;101680.03;;;14.98;77.95
18500;BME280;9379;52.134;11.576;2023-05-07T10:59:34;101677.66;;;14.95;78.21
18500;BME280;9379;52.134;11.576;2023-05-07T11:02:09;101671.16;;;14.97;76.64
18500;BME280;9379;52.134;11.576;2023-05-07T11:04:37;101677.91;;;14.82;77.48
18500;BME280;9379;52.134;11.576;2023-05-07T11:07:31;101677.34;;;14.88;76.40
18500;BME280;9379;52.134;11.576;2023-05-07T11:10:04;101680.09;;;15.17;76.15
18500;BME280;9379;52.134;11.576;2023-05-07T11:12:54;101688.00;;;14.78;76.47
18500;BME280;9379;52.134;11.576;2023-05-07T11:15:38;101675.78;;;14.85;77.23
18500;BME280;9379;52.134;11.576;2023-05-07T11:18:06;101686.63;;;14.84;78.00
18500;BME280;9379;52.134;11.576;2023-05-07T11:21:00;101684.53;;;14.87;77.04
18500;BME280;9379;52.134;11.576;2023-05-07T11:23:55;101680.47;;;15.03;77.15
18500;BME280;9379;52.134;11.576;2023-05-07T11:26:23;101667.47;;;14.88;77.78
18500;BME280;9379;52.134;11.576;2023-05-07T11:28:51;101684.00;;;14.94;77.94
18500;BME280;9379;52.134;11.576;2023-05-07T11:31:21;101690.19;;;14.54;78.91
18500;BME280;9379;52.134;11.576;2023-05-07T11:33:50;101688.56;;;14.72;77.87
18500;BME280;9379;52.134;11.576;2023-05-07T11:36:18;101688.84;;;14.79;77.23
18500;BME280;9379;52.134;11.576;2023-05-07T11:38:45;101681.59;;;14.50;77.82
18500;BME280;9379;52.134;11.576;2023-05-07T11:41:12;101685.66;;;14.24;79.62
18500;BME280;9379;52.134;11.576;2023-05-07T11:43:53;101691.59;;;14.07;79.82
18500;BME280;9379;52.134;11.576;2023-05-07T11:46:20;101686.28;;;14.68;79.00
18500;BME280;9379;52.134;11.576;2023-05-07T11:48:51;101680.56;;;14.92;77.20
18500;BME280;9379;52.134;11.576;2023-05-07T11:51:19;101685.72;;;15.24;76.96
18500;BME280;9379;52.134;11.576;2023-05-07T11:53:46;101682.72;;;14.57;79.64
18500;BME280;9379;52.134;11.576;2023-05-07T11:56:14;101689.41;;;14.73;78.00
18500;BME280;9379;52.134;11.576;2023-05-07T11:58:42;101687.75;;;14.91;76.96
18500;BME280;9379;52.134;11.576;2023-05-07T12:01:11;101689.22;;;15.14;75.78
18500;BME280;9379;52.134;11.576;2023-05-07T12:03:40;101670.06;;;15.09;75.29
18500;BME280;9379;52.134;11.576;2023-05-07T12:06:11;101682.78;;;15.17;75.98
18500;BME280;9379;52.134;11.576;2023-05-07T12:08:38;101682.56;;;14.99;76.12
18500;BME280;9379;52.134;11.576;2023-05-07T12:11:09;101685.88;;;15.22;75.54
18500;BME280;9379;52.134;11.576;2023-05-07T12:13:37;101682.56;;;14.89;76.51
18500;BME280;9379;52.134;11.576;2023-05-07T12:16:05;101686.53;;;14.95;76.98
18500;BME280;9379;52.134;11.576;2023-05-07T12:18:34;101688.66;;;15.11;75.66
18500;BME280;9379;52.134;11.576;2023-05-07T12:21:02;101663.56;;;15.02;76.94
18500;BME280;9379;52.134;11.576;2023-05-07T12:23:31;101677.75;;;14.93;77.63
18500;BME280;9379;52.134;11.576;2023-05-07T12:25:59;101675.34;;;14.80;77.37
18500;BME280;9379;52.134;11.576;2023-05-07T12:28:26;101685.00;;;15.12;77.69
18500;BME280;9379;52.134;11.576;2023-05-07T12:30:53;101693.53;;;15.75;74.86
18500;BME280;9379;52.134;11.576;2023-05-07T12:33:24;101689.03;;;15.66;74.64
18500;BME280;9379;52.134;11.576;2023-05-07T12:35:53;101685.97;;;15.01;76.31
18500;BME280;9379;52.134;11.576;2023-05-07T12:38:20;101693.78;;;15.33;76.17
18500;BME280;9379;52.134;11.576;2023-05-07T12:40:49;101681.94;;;15.45;75.76
18500;BME280;9379;52.134;11.576;2023-05-07T12:43:18;101693.09;;;15.60;74.16
18500;BME280;9379;52.134;11.576;2023-05-07T12:45:46;101693.47;;;15.27;75.71
18500;BME280;9379;52.134;11.576;2023-05-07T12:48:13;101677.97;;;15.59;75.38
18500;BME280;9379;52.134;11.576;2023-05-07T12:50:40;101694.19;;;15.38;76.05
18500;BME280;9379;52.134;11.576;2023-05-07T12:53:09;101681.91;;;15.26;75.14
18500;BME280;9379;52.134;11.576;2023-05-07T12:55:41;101688.69;;;15.50;76.00